대문
인공위성 심상 15 일 일기 예보기후바람 예보 사이클론 번개 공항FAQ 회보 프로젝트 소개
날씨 : 유럽 아프리카 북아메리카 남아메리카 아시아 오스트레일리아-오세아니아 다른 사람
언어 접촉

청도, 중국

위도: 36-04N, 경도: 120-20E, 해발고도: 77 m


METAR: ZSQD 011300Z 31002MPS 270V340 2300 BR BKN020 14/12 Q1018 NOSIG
TAF: ZSQD 010915Z 0112/0212 33004MPS 3000 BR BKN020 TX14/0206Z TN08/0121Z TEMPO 0112/0117 2500 -RA BR BKN011 BECMG 0116/0117 33009G14MPS

시간: 21:40 (13:40 UTC)

날씨관측

보고는 전에 40 분 제출되었다: 13:00 UTC
바람 4 kt 북서, 사이 변화 그리고 북북서
온도 14°C
습도 88%
기압 1018 hPa
시정: 2300 m
구름많음 고도에의 2000 ft
박무

단위계

날씨예보

보고는 전에 4 시간 그리고 25 분 제출되었다: 09:15 UTC
예보기간[UTC] : 01일 12시 ~ 02일 12시
바람 8 kt 북북서
시정: 3000 m
구름많음 고도에의 2000 ft
박무
임시의
01일 12시 ~ 01일 17시
시정: 2500 m
구름많음 고도에의 1100 ft
빛 비 그리고 박무
어울리는
01일 16시 ~ 01일 17시
바람 17 kt 북북서 순간풍속 27 kt
이 위치에 정보는 a를 조건으로 하여 이다 포기
날씨 : 유럽 아프리카 북아메리카 남아메리카 아시아 오스트레일리아-오세아니아 다른 사람
인공위성 심상 15 일 일기 예보기후바람 예보 사이클론 번개 공항FAQ 언어 접촉 회보 프로젝트 소개